CST,Max TemperatureF,Mean TemperatureF,Min TemperatureF,Max Dew PointF,MeanDew PointF,Min DewpointF,Max Humidity, Mean Humidity, Min Humidity, Max Sea Level PressureIn, Mean Sea Level PressureIn, Min Sea Level PressureIn, Max VisibilityMiles, Mean VisibilityMiles, Min VisibilityMiles, Max Wind SpeedMPH, Mean Wind SpeedMPH, Max Gust SpeedMPH,PrecipitationIn, CloudCover, Events, WindDirDegrees
2011-11-1,63,47,32,45,38,30,96,75,44,30.12,30.02,29.91,10,8,5,21,8,30,0.00,1,,183
2011-11-2,55,44,35,45,41,34,93,88,67,30.17,30.06,29.94,10,7,2,18,7,28,0.86,8,Rain,5
2011-11-3,48,40,28,38,33,26,96,77,54,30.29,30.20,30.14,10,10,10,16,9,23,0.00,1,,9
2011-11-4,51,39,27,37,32,26,96,78,54,30.40,30.32,30.26,10,10,6,8,2,,0.00,0,,135
2011-11-5,55,42,30,39,34,29,93,73,51,30.26,30.15,29.98,10,10,8,18,9,22,0.00,0,,164
2011-11-6,59,52,46,49,43,33,86,72,59,30.02,29.91,29.83,10,10,8,22,15,36,0.00,2,,196
2011-11-7,57,46,35,35,28,21,85,54,25,30.24,30.17,30.07,10,10,10,10,6,16,0.00,1,,232
2011-11-8,46,42,39,40,38,24,100,87,42,30.21,30.12,30.03,10,7,4,17,7,28,0.79,8,Rain,36
2011-11-9,42,38,33,40,34,28,96,91,79,30.00,29.76,29.60,10,4,0,26,20,37,1.35,7,Fog-Rain-Snow,336
2011-11-10,37,34,30,32,30,26,93,85,75,30.00,29.90,29.84,10,6,1,13,8,17,0.01,7,Snow,272
2011-11-11,39,34,28,30,27,24,86,78,65,29.98,29.84,29.69,10,10,10,13,7,,0.00,3,,207
2011-11-12,54,41,28,41,35,26,89,75,62,29.72,29.63,29.43,10,10,8,21,8,26,0.00,0,,188
2011-11-13,57,52,46,50,46,36,93,82,66,29.51,29.35,29.21,10,10,8,20,12,25,0.00,3,,210
2011-11-14,50,43,36,39,36,30,89,75,61,29.68,29.57,29.50,10,10,9,17,8,29,0.00,2,,203
2011-11-15,55,44,33,36,30,21,82,61,43,29.81,29.70,29.61,10,10,10,22,8,34,0.00,2,,217
2011-11-16,37,32,28,21,18,14,69,56,39,30.09,30.00,29.85,10,10,10,18,9,30,0.00,1,,269
2011-11-17,30,26,21,17,14,12,75,62,51,30.19,30.14,30.07,10,10,10,12,7,23,0.00,1,,251
2011-11-18,46,36,25,27,22,17,72,56,40,30.13,29.89,29.77,10,10,9,23,13,36,0.00,0,,192
2011-11-19,43,40,36,39,33,25,100,78,53,29.91,29.76,29.68,10,6,1,16,10,24,0.04,8,Rain,205
2011-11-20,36,33,28,34,27,21,93,77,69,30.40,30.23,29.92,10,10,10,15,10,23,0.00,8,,10
2011-11-21,35,30,26,29,26,21,85,78,70,30.42,30.35,30.28,10,10,9,7,2,,0.00,5,,50
2011-11-22,39,36,30,35,32,28,93,86,79,30.29,30.13,29.99,10,9,5,13,6,,0.00,4,,37
2011-11-23,39,33,27,35,31,26,100,90,81,30.21,30.15,30.08,7,5,2,8,4,,0.00,3,,249
2011-11-24,46,42,37,41,39,35,93,88,80,30.14,30.03,29.88,9,5,2,21,11,29,0.00,5,,209
2011-11-25,51,48,44,43,42,39,83,79,71,29.86,29.83,29.78,10,9,7,18,13,26,0.00,4,,198
2011-11-26,52,49,46,50,47,43,100,90,80,29.81,29.76,29.71,10,6,2,16,7,23,0.46,8,Rain,198
2011-11-27,43,38,30,40,30,23,93,78,66,30.19,29.98,29.79,10,10,9,18,13,29,0.07,8,Rain,340
2011-11-28,32,29,26,26,24,22,89,78,72,30.21,30.15,30.07,10,10,7,8,3,,0.00,5,,243
2011-11-29,37,32,27,28,23,19,82,67,52,30.16,30.11,30.02,10,10,10,24,16,34,0.00,1,,357
2011-11-30,42,32,21,23,19,16,82,60,35,30.12,30.05,29.99,10,10,10,9,6,,0.00,3,,241